sensor_id;sensor_type;location;lat;lon;timestamp;temperature;humidity
51567;DHT22;37657;53.182;5.638;2023-10-31T00:01:20;11.30;99.90
51567;DHT22;37657;53.182;5.638;2023-10-31T00:03:46;11.70;99.90
51567;DHT22;37657;53.182;5.638;2023-10-31T00:06:11;10.70;99.90
51567;DHT22;37657;53.182;5.638;2023-10-31T00:08:37;11.00;99.90
51567;DHT22;37657;53.182;5.638;2023-10-31T00:11:03;10.80;99.90
51567;DHT22;37657;53.182;5.638;2023-10-31T00:13:28;12.00;99.90
51567;DHT22;37657;53.182;5.638;2023-10-31T00:15:54;10.80;99.90
51567;DHT22;37657;53.182;5.638;2023-10-31T00:18:20;11.00;99.90
51567;DHT22;37657;53.182;5.638;2023-10-31T00:20:46;10.80;99.90
51567;DHT22;37657;53.182;5.638;2023-10-31T00:23:12;11.70;99.90
51567;DHT22;37657;53.182;5.638;2023-10-31T00:25:38;10.70;99.90
51567;DHT22;37657;53.182;5.638;2023-10-31T00:28:03;11.50;99.90
51567;DHT22;37657;53.182;5.638;2023-10-31T00:30:29;11.20;99.90
51567;DHT22;37657;53.182;5.638;2023-10-31T00:32:55;11.20;99.90
51567;DHT22;37657;53.182;5.638;2023-10-31T00:35:20;11.20;99.90
51567;DHT22;37657;53.182;5.638;2023-10-31T00:37:46;11.20;99.90
51567;DHT22;37657;53.182;5.638;2023-10-31T00:40:11;11.00;99.90
51567;DHT22;37657;53.182;5.638;2023-10-31T00:42:38;11.20;99.90
51567;DHT22;37657;53.182;5.638;2023-10-31T00:45:04;11.20;99.90
51567;DHT22;37657;53.182;5.638;2023-10-31T00:47:30;10.90;99.90
51567;DHT22;37657;53.182;5.638;2023-10-31T00:49:56;10.90;99.90
51567;DHT22;37657;53.182;5.638;2023-10-31T00:52:21;11.20;99.90
51567;DHT22;37657;53.182;5.638;2023-10-31T00:54:47;11.20;99.90
51567;DHT22;37657;53.182;5.638;2023-10-31T00:57:12;10.80;99.90
51567;DHT22;37657;53.182;5.638;2023-10-31T00:59:38;11.30;99.90
51567;DHT22;37657;53.182;5.638;2023-10-31T01:02:04;10.60;99.90
51567;DHT22;37657;53.182;5.638;2023-10-31T01:04:30;11.00;99.90
51567;DHT22;37657;53.182;5.638;2023-10-31T01:06:56;10.60;99.90
51567;DHT22;37657;53.182;5.638;2023-10-31T01:09:22;10.60;99.90
51567;DHT22;37657;53.182;5.638;2023-10-31T01:11:48;11.20;99.90
51567;DHT22;37657;53.182;5.638;2023-10-31T01:14:13;11.10;99.90
51567;DHT22;37657;53.182;5.638;2023-10-31T01:16:40;10.90;99.90
51567;DHT22;37657;53.182;5.638;2023-10-31T01:19:06;11.00;99.90
51567;DHT22;37657;53.182;5.638;2023-10-31T01:21:31;11.10;99.90
51567;DHT22;37657;53.182;5.638;2023-10-31T01:23:58;11.20;99.90
51567;DHT22;37657;53.182;5.638;2023-10-31T01:26:24;10.80;99.90
51567;DHT22;37657;53.182;5.638;2023-10-31T01:28:49;10.90;99.90
51567;DHT22;37657;53.182;5.638;2023-10-31T01:31:15;11.00;99.90
51567;DHT22;37657;53.182;5.638;2023-10-31T01:33:41;10.50;99.90
51567;DHT22;37657;53.182;5.638;2023-10-31T01:36:07;11.20;99.90
51567;DHT22;37657;53.182;5.638;2023-10-31T01:38:32;11.20;99.90
51567;DHT22;37657;53.182;5.638;2023-10-31T01:40:58;11.20;99.90
51567;DHT22;37657;53.182;5.638;2023-10-31T01:45:56;11.10;99.90
51567;DHT22;37657;53.182;5.638;2023-10-31T01:48:23;10.50;99.90
51567;DHT22;37657;53.182;5.638;2023-10-31T01:50:51;10.60;99.90
51567;DHT22;37657;53.182;5.638;2023-10-31T01:53:17;10.90;99.90
51567;DHT22;37657;53.182;5.638;2023-10-31T01:55:45;10.80;99.90
51567;DHT22;37657;53.182;5.638;2023-10-31T01:58:11;11.00;99.90
51567;DHT22;37657;53.182;5.638;2023-10-31T02:00:40;10.90;99.90
51567;DHT22;37657;53.182;5.638;2023-10-31T02:03:07;10.60;99.90
51567;DHT22;37657;53.182;5.638;2023-10-31T02:05:33;10.70;99.90
51567;DHT22;37657;53.182;5.638;2023-10-31T02:08:03;10.80;99.90
51567;DHT22;37657;53.182;5.638;2023-10-31T02:10:29;10.80;99.90
51567;DHT22;37657;53.182;5.638;2023-10-31T02:12:55;11.20;99.90
51567;DHT22;37657;53.182;5.638;2023-10-31T02:15:20;11.30;99.90
51567;DHT22;37657;53.182;5.638;2023-10-31T02:17:46;10.80;99.90
51567;DHT22;37657;53.182;5.638;2023-10-31T02:20:11;10.90;99.90
51567;DHT22;37657;53.182;5.638;2023-10-31T02:22:37;10.80;99.90
51567;DHT22;37657;53.182;5.638;2023-10-31T02:25:03;10.80;99.90
51567;DHT22;37657;53.182;5.638;2023-10-31T02:27:31;10.90;99.90
51567;DHT22;37657;53.182;5.638;2023-10-31T02:29:57;11.50;99.90
51567;DHT22;37657;53.182;5.638;2023-10-31T02:32:22;11.50;99.90
51567;DHT22;37657;53.182;5.638;2023-10-31T02:34:49;11.30;99.90
51567;DHT22;37657;53.182;5.638;2023-10-31T02:37:14;11.10;99.90
51567;DHT22;37657;53.182;5.638;2023-10-31T02:39:43;11.20;99.90
51567;DHT22;37657;53.182;5.638;2023-10-31T02:42:08;11.70;99.90
51567;DHT22;37657;53.182;5.638;2023-10-31T02:44:34;11.40;99.90
51567;DHT22;37657;53.182;5.638;2023-10-31T02:46:59;11.40;99.90
51567;DHT22;37657;53.182;5.638;2023-10-31T02:49:25;11.90;99.90
51567;DHT22;37657;53.182;5.638;2023-10-31T02:51:50;11.50;99.90
51567;DHT22;37657;53.182;5.638;2023-10-31T02:54:16;11.20;99.90
51567;DHT22;37657;53.182;5.638;2023-10-31T02:56:42;11.20;99.90
51567;DHT22;37657;53.182;5.638;2023-10-31T02:59:07;11.50;99.90
51567;DHT22;37657;53.182;5.638;2023-10-31T03:01:34;11.30;99.90
51567;DHT22;37657;53.182;5.638;2023-10-31T03:04:00;12.20;99.90
51567;DHT22;37657;53.182;5.638;2023-10-31T03:06:26;11.90;99.90
51567;DHT22;37657;53.182;5.638;2023-10-31T03:08:51;11.60;99.90
51567;DHT22;37657;53.182;5.638;2023-10-31T03:11:21;11.90;99.90
51567;DHT22;37657;53.182;5.638;2023-10-31T03:13:48;12.00;99.90
51567;DHT22;37657;53.182;5.638;2023-10-31T03:16:14;12.00;99.90
51567;DHT22;37657;53.182;5.638;2023-10-31T03:18:39;11.90;99.90
51567;DHT22;37657;53.182;5.638;2023-10-31T03:21:05;12.50;99.90
51567;DHT22;37657;53.182;5.638;2023-10-31T03:23:30;11.50;99.90
51567;DHT22;37657;53.182;5.638;2023-10-31T03:25:56;11.40;99.90
51567;DHT22;37657;53.182;5.638;2023-10-31T03:28:22;11.40;99.90
51567;DHT22;37657;53.182;5.638;2023-10-31T03:30:50;11.40;99.90
51567;DHT22;37657;53.182;5.638;2023-10-31T03:33:17;11.50;99.90
51567;DHT22;37657;53.182;5.638;2023-10-31T03:35:43;11.80;99.90
51567;DHT22;37657;53.182;5.638;2023-10-31T03:38:09;12.10;99.90
51567;DHT22;37657;53.182;5.638;2023-10-31T03:40:35;11.50;99.90
51567;DHT22;37657;53.182;5.638;2023-10-31T03:43:00;11.80;99.90
51567;DHT22;37657;53.182;5.638;2023-10-31T03:45:26;11.70;99.90
51567;DHT22;37657;53.182;5.638;2023-10-31T03:47:51;12.10;99.90
51567;DHT22;37657;53.182;5.638;2023-10-31T03:50:17;12.10;99.90
51567;DHT22;37657;53.182;5.638;2023-10-31T03:52:42;12.00;99.90
51567;DHT22;37657;53.182;5.638;2023-10-31T03:55:08;12.00;99.90
51567;DHT22;37657;53.182;5.638;2023-10-31T03:57:34;11.50;99.90
51567;DHT22;37657;53.182;5.638;2023-10-31T04:00:00;11.80;99.90
51567;DHT22;37657;53.182;5.638;2023-10-31T04:02:25;11.70;99.90
51567;DHT22;37657;53.182;5.638;2023-10-31T04:04:51;11.60;99.90
51567;DHT22;37657;53.182;5.638;2023-10-31T04:07:16;12.10;99.90
51567;DHT22;37657;53.182;5.638;2023-10-31T04:09:42;11.60;99.90
51567;DHT22;37657;53.182;5.638;2023-10-31T04:12:08;11.80;99.90
51567;DHT22;37657;53.182;5.638;2023-10-31T04:14:34;11.60;99.90
51567;DHT22;37657;53.182;5.638;2023-10-31T04:17:00;12.10;99.90
51567;DHT22;37657;53.182;5.638;2023-10-31T04:19:25;11.60;99.90
51567;DHT22;37657;53.182;5.638;2023-10-31T04:21:54;11.60;99.90
51567;DHT22;37657;53.182;5.638;2023-10-31T04:24:19;12.00;99.90
51567;DHT22;37657;53.182;5.638;2023-10-31T04:26:45;12.40;99.90
51567;DHT22;37657;53.182;5.638;2023-10-31T04:29:11;12.10;99.90
51567;DHT22;37657;53.182;5.638;2023-10-31T04:31:36;11.50;99.90
51567;DHT22;37657;53.182;5.638;2023-10-31T04:34:02;11.70;99.90
51567;DHT22;37657;53.182;5.638;2023-10-31T04:36:27;11.80;99.90
51567;DHT22;37657;53.182;5.638;2023-10-31T04:38:53;11.40;99.90
51567;DHT22;37657;53.182;5.638;2023-10-31T04:41:19;12.10;99.90
51567;DHT22;37657;53.182;5.638;2023-10-31T04:43:45;11.50;99.90
51567;DHT22;37657;53.182;5.638;2023-10-31T04:46:11;11.80;99.90
51567;DHT22;37657;53.182;5.638;2023-10-31T04:48:37;12.00;99.90
51567;DHT22;37657;53.182;5.638;2023-10-31T04:51:02;12.00;99.90
51567;DHT22;37657;53.182;5.638;2023-10-31T04:53:28;11.60;99.90
51567;DHT22;37657;53.182;5.638;2023-10-31T04:55:54;11.80;99.90
51567;DHT22;37657;53.182;5.638;2023-10-31T04:58:20;11.60;99.90
51567;DHT22;37657;53.182;5.638;2023-10-31T05:00:46;11.90;99.90
51567;DHT22;37657;53.182;5.638;2023-10-31T05:03:12;11.30;99.90
51567;DHT22;37657;53.182;5.638;2023-10-31T05:05:38;11.70;99.90
51567;DHT22;37657;53.182;5.638;2023-10-31T05:08:03;11.90;99.90
51567;DHT22;37657;53.182;5.638;2023-10-31T05:10:29;11.40;99.90
51567;DHT22;37657;53.182;5.638;2023-10-31T05:12:54;11.90;99.90
51567;DHT22;37657;53.182;5.638;2023-10-31T05:15:20;12.00;99.90
51567;DHT22;37657;53.182;5.638;2023-10-31T05:17:45;11.90;99.90
51567;DHT22;37657;53.182;5.638;2023-10-31T05:20:11;12.00;99.90
51567;DHT22;37657;53.182;5.638;2023-10-31T05:22:37;11.90;99.90
51567;DHT22;37657;53.182;5.638;2023-10-31T05:25:03;11.50;99.90
51567;DHT22;37657;53.182;5.638;2023-10-31T05:27:29;12.10;99.90
51567;DHT22;37657;53.182;5.638;2023-10-31T05:29:54;12.10;99.90
51567;DHT22;37657;53.182;5.638;2023-10-31T05:32:20;12.10;99.90
51567;DHT22;37657;53.182;5.638;2023-10-31T05:34:45;12.10;99.90
51567;DHT22;37657;53.182;5.638;2023-10-31T05:37:11;12.00;99.90
51567;DHT22;37657;53.182;5.638;2023-10-31T05:39:36;11.60;99.90
51567;DHT22;37657;53.182;5.638;2023-10-31T05:42:03;11.80;99.90
51567;DHT22;37657;53.182;5.638;2023-10-31T05:44:29;12.10;99.90
51567;DHT22;37657;53.182;5.638;2023-10-31T05:46:54;11.90;99.90
51567;DHT22;37657;53.182;5.638;2023-10-31T05:49:20;11.90;99.90
51567;DHT22;37657;53.182;5.638;2023-10-31T05:51:54;12.10;99.90
51567;DHT22;37657;53.182;5.638;2023-10-31T05:54:20;12.40;99.90
51567;DHT22;37657;53.182;5.638;2023-10-31T05:56:46;12.00;99.90
51567;DHT22;37657;53.182;5.638;2023-10-31T05:59:12;11.60;99.90
51567;DHT22;37657;53.182;5.638;2023-10-31T06:01:38;11.90;99.90
51567;DHT22;37657;53.182;5.638;2023-10-31T06:04:03;12.00;99.90
51567;DHT22;37657;53.182;5.638;2023-10-31T06:06:32;12.00;99.90
51567;DHT22;37657;53.182;5.638;2023-10-31T06:08:58;11.50;99.90
51567;DHT22;37657;53.182;5.638;2023-10-31T06:11:23;12.00;99.90
51567;DHT22;37657;53.182;5.638;2023-10-31T06:13:49;11.80;99.90
51567;DHT22;37657;53.182;5.638;2023-10-31T06:16:14;11.30;99.90
51567;DHT22;37657;53.182;5.638;2023-10-31T06:18:40;11.30;99.90
51567;DHT22;37657;53.182;5.638;2023-10-31T06:21:06;11.70;99.90
51567;DHT22;37657;53.182;5.638;2023-10-31T06:23:35;11.60;99.90
51567;DHT22;37657;53.182;5.638;2023-10-31T06:26:01;11.20;99.90
51567;DHT22;37657;53.182;5.638;2023-10-31T06:28:26;11.00;99.90
51567;DHT22;37657;53.182;5.638;2023-10-31T06:30:52;11.50;99.90
51567;DHT22;37657;53.182;5.638;2023-10-31T06:33:17;10.90;99.90
51567;DHT22;37657;53.182;5.638;2023-10-31T06:35:43;11.40;99.90
51567;DHT22;37657;53.182;5.638;2023-10-31T06:38:08;10.90;99.90
51567;DHT22;37657;53.182;5.638;2023-10-31T06:40:34;11.30;99.90
51567;DHT22;37657;53.182;5.638;2023-10-31T06:43:01;11.40;99.90
51567;DHT22;37657;53.182;5.638;2023-10-31T06:45:27;11.00;99.90
51567;DHT22;37657;53.182;5.638;2023-10-31T06:47:53;10.90;99.90
51567;DHT22;37657;53.182;5.638;2023-10-31T06:50:19;11.30;99.90
51567;DHT22;37657;53.182;5.638;2023-10-31T06:52:44;11.20;99.90
51567;DHT22;37657;53.182;5.638;2023-10-31T06:55:10;11.30;99.90
51567;DHT22;37657;53.182;5.638;2023-10-31T06:57:36;10.90;99.90
51567;DHT22;37657;53.182;5.638;2023-10-31T07:00:01;11.40;99.90
51567;DHT22;37657;53.182;5.638;2023-10-31T07:02:28;11.50;99.90
51567;DHT22;37657;53.182;5.638;2023-10-31T07:04:54;11.60;99.90
51567;DHT22;37657;53.182;5.638;2023-10-31T07:07:19;11.00;99.90
51567;DHT22;37657;53.182;5.638;2023-10-31T07:09:45;11.60;99.90
51567;DHT22;37657;53.182;5.638;2023-10-31T07:12:10;12.80;99.90
51567;DHT22;37657;53.182;5.638;2023-10-31T07:14:36;11.00;99.90
51567;DHT22;37657;53.182;5.638;2023-10-31T07:17:02;11.70;99.90
51567;DHT22;37657;53.182;5.638;2023-10-31T07:19:27;11.20;99.90
51567;DHT22;37657;53.182;5.638;2023-10-31T07:21:53;11.10;99.90
51567;DHT22;37657;53.182;5.638;2023-10-31T07:24:19;11.80;99.90
51567;DHT22;37657;53.182;5.638;2023-10-31T07:26:45;11.50;99.90
51567;DHT22;37657;53.182;5.638;2023-10-31T07:29:11;11.20;99.90
51567;DHT22;37657;53.182;5.638;2023-10-31T07:31:37;11.70;99.90
51567;DHT22;37657;53.182;5.638;2023-10-31T07:34:04;11.90;99.90
51567;DHT22;37657;53.182;5.638;2023-10-31T07:36:30;11.10;99.90
51567;DHT22;37657;53.182;5.638;2023-10-31T07:38:57;11.40;99.90
51567;DHT22;37657;53.182;5.638;2023-10-31T07:41:24;11.50;99.90
51567;DHT22;37657;53.182;5.638;2023-10-31T07:43:49;11.80;99.90
51567;DHT22;37657;53.182;5.638;2023-10-31T07:46:15;11.70;99.90
51567;DHT22;37657;53.182;5.638;2023-10-31T07:48:40;11.10;99.90
51567;DHT22;37657;53.182;5.638;2023-10-31T07:51:06;11.30;99.90
51567;DHT22;37657;53.182;5.638;2023-10-31T07:53:31;11.90;99.90
51567;DHT22;37657;53.182;5.638;2023-10-31T07:55:57;11.20;99.90
51567;DHT22;37657;53.182;5.638;2023-10-31T07:58:23;11.80;99.90
51567;DHT22;37657;53.182;5.638;2023-10-31T08:00:48;11.40;99.90
51567;DHT22;37657;53.182;5.638;2023-10-31T08:03:14;11.80;99.90
51567;DHT22;37657;53.182;5.638;2023-10-31T08:05:40;11.20;99.90
51567;DHT22;37657;53.182;5.638;2023-10-31T08:08:05;11.20;99.90
51567;DHT22;37657;53.182;5.638;2023-10-31T08:10:31;11.90;99.90
51567;DHT22;37657;53.182;5.638;2023-10-31T08:12:56;11.80;99.90
51567;DHT22;37657;53.182;5.638;2023-10-31T08:15:22;11.80;99.90
51567;DHT22;37657;53.182;5.638;2023-10-31T08:17:47;11.60;99.90
51567;DHT22;37657;53.182;5.638;2023-10-31T08:20:13;11.10;99.90
51567;DHT22;37657;53.182;5.638;2023-10-31T08:22:39;11.90;99.90
51567;DHT22;37657;53.182;5.638;2023-10-31T08:25:08;11.40;99.90
51567;DHT22;37657;53.182;5.638;2023-10-31T08:27:34;11.90;99.90
51567;DHT22;37657;53.182;5.638;2023-10-31T08:30:00;11.90;99.90
51567;DHT22;37657;53.182;5.638;2023-10-31T08:32:25;11.90;99.90
51567;DHT22;37657;53.182;5.638;2023-10-31T08:34:51;12.00;99.90
51567;DHT22;37657;53.182;5.638;2023-10-31T08:37:16;11.80;99.90
51567;DHT22;37657;53.182;5.638;2023-10-31T08:39:42;11.70;99.90
51567;DHT22;37657;53.182;5.638;2023-10-31T08:42:08;12.10;99.90
51567;DHT22;37657;53.182;5.638;2023-10-31T08:44:36;12.10;99.90
51567;DHT22;37657;53.182;5.638;2023-10-31T08:47:03;11.80;99.90
51567;DHT22;37657;53.182;5.638;2023-10-31T08:49:29;12.10;99.90
51567;DHT22;37657;53.182;5.638;2023-10-31T08:51:55;11.90;99.90
51567;DHT22;37657;53.182;5.638;2023-10-31T08:54:20;11.20;99.90
51567;DHT22;37657;53.182;5.638;2023-10-31T08:56:46;11.40;99.90
51567;DHT22;37657;53.182;5.638;2023-10-31T08:59:12;11.80;99.90
51567;DHT22;37657;53.182;5.638;2023-10-31T09:01:37;11.30;99.90
51567;DHT22;37657;53.182;5.638;2023-10-31T09:04:03;11.90;99.90
51567;DHT22;37657;53.182;5.638;2023-10-31T09:06:29;11.90;99.90
51567;DHT22;37657;53.182;5.638;2023-10-31T09:08:54;11.20;99.90
51567;DHT22;37657;53.182;5.638;2023-10-31T09:11:20;11.30;99.90
51567;DHT22;37657;53.182;5.638;2023-10-31T09:13:46;11.90;99.90
51567;DHT22;37657;53.182;5.638;2023-10-31T09:16:11;11.90;99.90
51567;DHT22;37657;53.182;5.638;2023-10-31T09:18:39;11.90;99.90
51567;DHT22;37657;53.182;5.638;2023-10-31T09:21:04;12.00;99.90
51567;DHT22;37657;53.182;5.638;2023-10-31T09:23:30;11.80;99.90
51567;DHT22;37657;53.182;5.638;2023-10-31T09:25:56;12.10;99.90
51567;DHT22;37657;53.182;5.638;2023-10-31T09:28:22;12.00;99.90
51567;DHT22;37657;53.182;5.638;2023-10-31T09:30:47;11.30;99.90
51567;DHT22;37657;53.182;5.638;2023-10-31T09:33:13;11.50;99.90
51567;DHT22;37657;53.182;5.638;2023-10-31T09:35:39;12.10;99.90
51567;DHT22;37657;53.182;5.638;2023-10-31T09:38:04;11.40;99.90
51567;DHT22;37657;53.182;5.638;2023-10-31T09:40:30;11.50;99.90
51567;DHT22;37657;53.182;5.638;2023-10-31T09:42:56;11.70;99.90
51567;DHT22;37657;53.182;5.638;2023-10-31T09:45:21;11.50;99.90
51567;DHT22;37657;53.182;5.638;2023-10-31T09:47:47;11.50;99.90
51567;DHT22;37657;53.182;5.638;2023-10-31T09:50:12;11.80;99.90
51567;DHT22;37657;53.182;5.638;2023-10-31T09:52:39;11.40;99.90
51567;DHT22;37657;53.182;5.638;2023-10-31T09:55:05;11.50;99.90
51567;DHT22;37657;53.182;5.638;2023-10-31T09:57:32;11.50;99.90
51567;DHT22;37657;53.182;5.638;2023-10-31T09:59:57;12.30;99.90
51567;DHT22;37657;53.182;5.638;2023-10-31T10:02:23;11.70;99.90
51567;DHT22;37657;53.182;5.638;2023-10-31T10:04:49;11.50;99.90
51567;DHT22;37657;53.182;5.638;2023-10-31T10:07:16;12.00;99.90
51567;DHT22;37657;53.182;5.638;2023-10-31T10:09:42;12.20;99.90
51567;DHT22;37657;53.182;5.638;2023-10-31T10:12:11;11.90;99.90
51567;DHT22;37657;53.182;5.638;2023-10-31T10:14:38;12.20;99.90
51567;DHT22;37657;53.182;5.638;2023-10-31T10:17:24;12.40;99.90
51567;DHT22;37657;53.182;5.638;2023-10-31T10:20:10;12.40;99.90
51567;DHT22;37657;53.182;5.638;2023-10-31T10:22:40;12.20;99.90
51567;DHT22;37657;53.182;5.638;2023-10-31T10:25:08;11.70;99.90
51567;DHT22;37657;53.182;5.638;2023-10-31T10:27:34;12.30;99.90
51567;DHT22;37657;53.182;5.638;2023-10-31T10:29:59;12.50;99.90
51567;DHT22;37657;53.182;5.638;2023-10-31T10:32:25;12.10;99.90
51567;DHT22;37657;53.182;5.638;2023-10-31T10:34:50;12.40;99.90
51567;DHT22;37657;53.182;5.638;2023-10-31T10:37:18;12.50;99.90
51567;DHT22;37657;53.182;5.638;2023-10-31T10:39:47;12.70;99.90
51567;DHT22;37657;53.182;5.638;2023-10-31T10:42:17;11.80;99.90
51567;DHT22;37657;53.182;5.638;2023-10-31T10:44:45;12.40;99.90
51567;DHT22;37657;53.182;5.638;2023-10-31T10:47:13;11.90;99.90
51567;DHT22;37657;53.182;5.638;2023-10-31T10:49:42;12.40;99.90
51567;DHT22;37657;53.182;5.638;2023-10-31T10:52:16;12.60;99.90
51567;DHT22;37657;53.182;5.638;2023-10-31T10:55:03;12.60;99.90
51567;DHT22;37657;53.182;5.638;2023-10-31T11:00:16;12.30;99.90
51567;DHT22;37657;53.182;5.638;2023-10-31T11:02:43;11.90;99.90
51567;DHT22;37657;53.182;5.638;2023-10-31T11:05:09;12.10;99.90
51567;DHT22;37657;53.182;5.638;2023-10-31T11:07:39;12.20;99.90
51567;DHT22;37657;53.182;5.638;2023-10-31T11:10:05;12.30;99.90
51567;DHT22;37657;53.182;5.638;2023-10-31T11:12:32;12.20;99.90
51567;DHT22;37657;53.182;5.638;2023-10-31T11:14:59;11.80;99.90
51567;DHT22;37657;53.182;5.638;2023-10-31T11:17:31;12.20;99.90
51567;DHT22;37657;53.182;5.638;2023-10-31T11:20:00;12.00;99.90
51567;DHT22;37657;53.182;5.638;2023-10-31T11:22:25;11.60;99.90
51567;DHT22;37657;53.182;5.638;2023-10-31T11:25:01;11.70;99.90
51567;DHT22;37657;53.182;5.638;2023-10-31T11:27:27;11.70;99.90
51567;DHT22;37657;53.182;5.638;2023-10-31T11:29:54;12.20;99.90
51567;DHT22;37657;53.182;5.638;2023-10-31T11:32:22;11.80;99.90
51567;DHT22;37657;53.182;5.638;2023-10-31T11:34:47;12.30;99.90
51567;DHT22;37657;53.182;5.638;2023-10-31T11:37:24;11.90;99.90
51567;DHT22;37657;53.182;5.638;2023-10-31T11:40:19;12.50;99.90
51567;DHT22;37657;53.182;5.638;2023-10-31T11:42:57;12.40;99.90
51567;DHT22;37657;53.182;5.638;2023-10-31T11:45:35;12.00;99.90
51567;DHT22;37657;53.182;5.638;2023-10-31T11:48:02;11.90;99.90
51567;DHT22;37657;53.182;5.638;2023-10-31T11:50:30;11.90;99.90
51567;DHT22;37657;53.182;5.638;2023-10-31T11:55:25;12.40;99.90
51567;DHT22;37657;53.182;5.638;2023-10-31T11:57:51;12.80;99.90
51567;DHT22;37657;53.182;5.638;2023-10-31T12:00:21;12.50;99.90
51567;DHT22;37657;53.182;5.638;2023-10-31T12:03:00;12.30;99.90
51567;DHT22;37657;53.182;5.638;2023-10-31T12:05:26;12.30;99.90
51567;DHT22;37657;53.182;5.638;2023-10-31T12:07:53;12.50;99.90
51567;DHT22;37657;53.182;5.638;2023-10-31T12:10:26;13.00;99.90
51567;DHT22;37657;53.182;5.638;2023-10-31T12:12:55;12.50;99.90
51567;DHT22;37657;53.182;5.638;2023-10-31T12:15:21;12.60;99.90
51567;DHT22;37657;53.182;5.638;2023-10-31T12:17:46;12.30;99.90
51567;DHT22;37657;53.182;5.638;2023-10-31T12:20:12;12.50;99.90
51567;DHT22;37657;53.182;5.638;2023-10-31T12:22:38;12.60;99.90
51567;DHT22;37657;53.182;5.638;2023-10-31T12:25:07;12.70;99.90
51567;DHT22;37657;53.182;5.638;2023-10-31T12:27:49;12.50;99.90
51567;DHT22;37657;53.182;5.638;2023-10-31T12:30:22;12.80;99.90
51567;DHT22;37657;53.182;5.638;2023-10-31T12:32:54;12.30;99.90
51567;DHT22;37657;53.182;5.638;2023-10-31T12:35:22;12.60;99.90
51567;DHT22;37657;53.182;5.638;2023-10-31T12:37:49;12.70;99.90
51567;DHT22;37657;53.182;5.638;2023-10-31T12:40:18;12.50;99.90
51567;DHT22;37657;53.182;5.638;2023-10-31T12:42:45;12.40;99.90
51567;DHT22;37657;53.182;5.638;2023-10-31T12:45:15;12.70;99.90
51567;DHT22;37657;53.182;5.638;2023-10-31T12:47:42;12.60;99.90
51567;DHT22;37657;53.182;5.638;2023-10-31T12:50:17;12.60;99.90
51567;DHT22;37657;53.182;5.638;2023-10-31T12:55:16;12.20;99.90
51567;DHT22;37657;53.182;5.638;2023-10-31T12:57:42;12.40;99.90
51567;DHT22;37657;53.182;5.638;2023-10-31T13:00:13;12.40;99.90
51567;DHT22;37657;53.182;5.638;2023-10-31T13:02:39;12.20;99.90
51567;DHT22;37657;53.182;5.638;2023-10-31T13:05:15;12.50;99.90
51567;DHT22;37657;53.182;5.638;2023-10-31T13:07:54;13.00;99.90
51567;DHT22;37657;53.182;5.638;2023-10-31T13:10:25;12.30;99.90
51567;DHT22;37657;53.182;5.638;2023-10-31T13:12:52;12.40;99.90
51567;DHT22;37657;53.182;5.638;2023-10-31T13:15:19;12.40;99.90
51567;DHT22;37657;53.182;5.638;2023-10-31T13:17:46;12.30;99.90
51567;DHT22;37657;53.182;5.638;2023-10-31T13:20:13;12.30;99.90
51567;DHT22;37657;53.182;5.638;2023-10-31T13:22:40;12.10;99.90
51567;DHT22;37657;53.182;5.638;2023-10-31T13:25:11;12.30;99.90
51567;DHT22;37657;53.182;5.638;2023-10-31T13:27:38;12.30;99.90
51567;DHT22;37657;53.182;5.638;2023-10-31T13:30:04;12.30;99.90
51567;DHT22;37657;53.182;5.638;2023-10-31T13:32:30;12.40;99.90
51567;DHT22;37657;53.182;5.638;2023-10-31T13:34:56;12.40;99.90
51567;DHT22;37657;53.182;5.638;2023-10-31T13:37:21;12.30;99.90
51567;DHT22;37657;53.182;5.638;2023-10-31T13:39:47;12.20;99.90
51567;DHT22;37657;53.182;5.638;2023-10-31T13:42:13;12.20;99.90
51567;DHT22;37657;53.182;5.638;2023-10-31T13:44:43;12.50;99.90
51567;DHT22;37657;53.182;5.638;2023-10-31T13:47:09;12.30;99.90
51567;DHT22;37657;53.182;5.638;2023-10-31T13:49:36;12.30;99.90
51567;DHT22;37657;53.182;5.638;2023-10-31T13:52:03;12.40;99.90
51567;DHT22;37657;53.182;5.638;2023-10-31T13:54:29;12.20;99.90
51567;DHT22;37657;53.182;5.638;2023-10-31T13:56:54;12.40;99.90
51567;DHT22;37657;53.182;5.638;2023-10-31T13:59:20;12.20;99.90
51567;DHT22;37657;53.182;5.638;2023-10-31T14:01:46;12.10;99.90
51567;DHT22;37657;53.182;5.638;2023-10-31T14:04:12;12.40;99.90
51567;DHT22;37657;53.182;5.638;2023-10-31T14:06:41;12.20;99.90
51567;DHT22;37657;53.182;5.638;2023-10-31T14:09:10;12.10;99.90
51567;DHT22;37657;53.182;5.638;2023-10-31T14:11:38;12.40;99.90
51567;DHT22;37657;53.182;5.638;2023-10-31T14:14:04;12.10;99.90
51567;DHT22;37657;53.182;5.638;2023-10-31T14:16:38;12.30;99.90
51567;DHT22;37657;53.182;5.638;2023-10-31T14:19:05;12.10;99.90
51567;DHT22;37657;53.182;5.638;2023-10-31T14:21:31;12.10;99.90
51567;DHT22;37657;53.182;5.638;2023-10-31T14:23:57;12.10;99.90
51567;DHT22;37657;53.182;5.638;2023-10-31T14:26:23;11.90;99.90
51567;DHT22;37657;53.182;5.638;2023-10-31T14:28:49;12.00;99.90
51567;DHT22;37657;53.182;5.638;2023-10-31T14:31:16;11.80;99.90
51567;DHT22;37657;53.182;5.638;2023-10-31T14:33:41;12.00;99.90
51567;DHT22;37657;53.182;5.638;2023-10-31T14:36:08;12.00;99.90
51567;DHT22;37657;53.182;5.638;2023-10-31T14:38:36;11.80;99.90
51567;DHT22;37657;53.182;5.638;2023-10-31T14:41:02;12.00;99.90
51567;DHT22;37657;53.182;5.638;2023-10-31T14:43:28;11.80;99.90
51567;DHT22;37657;53.182;5.638;2023-10-31T14:45:54;12.00;99.90
51567;DHT22;37657;53.182;5.638;2023-10-31T14:48:21;11.90;99.90
51567;DHT22;37657;53.182;5.638;2023-10-31T14:50:47;11.80;99.90
51567;DHT22;37657;53.182;5.638;2023-10-31T14:53:16;11.90;99.90
51567;DHT22;37657;53.182;5.638;2023-10-31T14:55:43;11.70;99.90
51567;DHT22;37657;53.182;5.638;2023-10-31T14:58:09;11.70;99.90
51567;DHT22;37657;53.182;5.638;2023-10-31T15:00:35;11.70;99.90
51567;DHT22;37657;53.182;5.638;2023-10-31T15:03:00;11.90;99.90
51567;DHT22;37657;53.182;5.638;2023-10-31T15:05:26;11.80;99.90
51567;DHT22;37657;53.182;5.638;2023-10-31T15:07:51;11.60;99.90
51567;DHT22;37657;53.182;5.638;2023-10-31T15:10:21;11.60;99.90
51567;DHT22;37657;53.182;5.638;2023-10-31T15:12:48;11.90;99.90
51567;DHT22;37657;53.182;5.638;2023-10-31T15:15:16;11.60;99.90
51567;DHT22;37657;53.182;5.638;2023-10-31T15:17:42;11.80;99.90
51567;DHT22;37657;53.182;5.638;2023-10-31T15:20:08;11.70;99.90
51567;DHT22;37657;53.182;5.638;2023-10-31T15:22:40;11.80;99.90
51567;DHT22;37657;53.182;5.638;2023-10-31T15:25:07;11.60;99.90
51567;DHT22;37657;53.182;5.638;2023-10-31T15:27:33;11.70;99.90
51567;DHT22;37657;53.182;5.638;2023-10-31T15:29:59;11.60;99.90
51567;DHT22;37657;53.182;5.638;2023-10-31T15:32:24;11.60;99.90
51567;DHT22;37657;53.182;5.638;2023-10-31T15:34:50;11.60;99.90
51567;DHT22;37657;53.182;5.638;2023-10-31T15:37:16;11.60;99.90